sensor_id;sensor_type;location;lat;lon;timestamp;pressure;altitude;pressure_sealevel;temperature;humidity
11519;BME280;5816;48.228;14.116;2023-01-26T05:31:12;98370.59;;;0.82;100.00
11519;BME280;5816;48.228;14.116;2023-01-26T05:36:14;98373.38;;;0.79;100.00
11519;BME280;5816;48.228;14.116;2023-01-26T05:41:16;98370.22;;;0.92;100.00
11519;BME280;5816;48.228;14.116;2023-01-26T05:46:17;98363.25;;;0.91;100.00
11519;BME280;5816;48.228;14.116;2023-01-26T05:51:19;98364.53;;;1.01;100.00
11519;BME280;5816;48.228;14.116;2023-01-26T05:56:21;98376.63;;;0.86;100.00
11519;BME280;5816;48.228;14.116;2023-01-26T06:01:23;98378.78;;;0.76;100.00
11519;BME280;5816;48.228;14.116;2023-01-26T06:06:24;98374.81;;;0.66;100.00
11519;BME280;5816;48.228;14.116;2023-01-26T06:11:26;98374.69;;;0.69;100.00
11519;BME280;5816;48.228;14.116;2023-01-26T06:16:28;98369.94;;;0.57;100.00
11519;BME280;5816;48.228;14.116;2023-01-26T06:21:31;98376.94;;;0.99;100.00
11519;BME280;5816;48.228;14.116;2023-01-26T06:26:33;98368.81;;;1.03;100.00
11519;BME280;5816;48.228;14.116;2023-01-26T06:31:35;98366.97;;;0.65;100.00
11519;BME280;5816;48.228;14.116;2023-01-26T06:36:37;98321.97;;;0.69;100.00
11519;BME280;5816;48.228;14.116;2023-01-26T06:41:41;98368.97;;;1.00;100.00
11519;BME280;5816;48.228;14.116;2023-01-26T06:46:43;98366.25;;;1.02;100.00
11519;BME280;5816;48.228;14.116;2023-01-26T06:52:30;98377.22;;;0.93;100.00
11519;BME280;5816;48.228;14.116;2023-01-26T06:57:07;98372.59;;;0.77;100.00
11519;BME280;5816;48.228;14.116;2023-01-26T07:02:19;98374.50;;;0.94;100.00
11519;BME280;5816;48.228;14.116;2023-01-26T07:07:21;98379.19;;;0.88;100.00
11519;BME280;5816;48.228;14.116;2023-01-26T07:12:23;98368.25;;;0.56;100.00
11519;BME280;5816;48.228;14.116;2023-01-26T07:17:25;98372.63;;;0.55;100.00
11519;BME280;5816;48.228;14.116;2023-01-26T07:22:27;98369.50;;;0.88;100.00
11519;BME280;5816;48.228;14.116;2023-01-26T07:27:29;98370.56;;;0.64;100.00
11519;BME280;5816;48.228;14.116;2023-01-26T07:32:30;98379.06;;;0.91;100.00
11519;BME280;5816;48.228;14.116;2023-01-26T07:37:32;98373.38;;;0.59;100.00
11519;BME280;5816;48.228;14.116;2023-01-26T07:42:34;98367.72;;;0.89;100.00
11519;BME280;5816;48.228;14.116;2023-01-26T07:47:36;98366.66;;;0.93;100.00
11519;BME280;5816;48.228;14.116;2023-01-26T07:52:39;98371.53;;;1.02;100.00
11519;BME280;5816;48.228;14.116;2023-01-26T07:57:40;98361.97;;;0.59;100.00
11519;BME280;5816;48.228;14.116;2023-01-26T08:02:42;98361.97;;;0.59;100.00
11519;BME280;5816;48.228;14.116;2023-01-26T08:07:44;98359.75;;;0.70;100.00
11519;BME280;5816;48.228;14.116;2023-01-26T08:12:47;98367.53;;;0.93;100.00
11519;BME280;5816;48.228;14.116;2023-01-26T08:17:49;98362.91;;;0.78;100.00
11519;BME280;5816;48.228;14.116;2023-01-26T08:22:54;98355.53;;;0.86;100.00
11519;BME280;5816;48.228;14.116;2023-01-26T08:27:56;98360.72;;;1.08;100.00
11519;BME280;5816;48.228;14.116;2023-01-26T08:32:57;98355.44;;;0.88;100.00
11519;BME280;5816;48.228;14.116;2023-01-26T08:37:59;98347.28;;;0.94;100.00
11519;BME280;5816;48.228;14.116;2023-01-26T08:43:01;98351.78;;;0.71;100.00
11519;BME280;5816;48.228;14.116;2023-01-26T08:48:03;98348.22;;;0.93;100.00
11519;BME280;5816;48.228;14.116;2023-01-26T08:53:05;98345.41;;;0.55;100.00
11519;BME280;5816;48.228;14.116;2023-01-26T08:58:07;98356.53;;;0.84;100.00
11519;BME280;5816;48.228;14.116;2023-01-26T09:03:09;98345.31;;;0.99;100.00
11519;BME280;5816;48.228;14.116;2023-01-26T09:08:11;98340.41;;;0.90;100.00
11519;BME280;5816;48.228;14.116;2023-01-26T09:13:13;98341.47;;;0.86;100.00
11519;BME280;5816;48.228;14.116;2023-01-26T09:18:15;98338.38;;;0.96;100.00
11519;BME280;5816;48.228;14.116;2023-01-26T09:23:18;98329.66;;;0.94;100.00
11519;BME280;5816;48.228;14.116;2023-01-26T09:28:22;98343.59;;;0.98;100.00
11519;BME280;5816;48.228;14.116;2023-01-26T09:33:24;98345.69;;;0.90;100.00
11519;BME280;5816;48.228;14.116;2023-01-26T09:38:27;98346.59;;;1.09;100.00
11519;BME280;5816;48.228;14.116;2023-01-26T09:43:50;98326.69;;;1.02;100.00
11519;BME280;5816;48.228;14.116;2023-01-26T09:49:06;98338.38;;;0.96;100.00
11519;BME280;5816;48.228;14.116;2023-01-26T09:59:38;98325.22;;;1.15;100.00
11519;BME280;5816;48.228;14.116;2023-01-26T10:04:45;98326.66;;;1.22;100.00
11519;BME280;5816;48.228;14.116;2023-01-26T10:09:51;98326.53;;;1.25;100.00
11519;BME280;5816;48.228;14.116;2023-01-26T10:15:06;98313.81;;;1.15;100.00
11519;BME280;5816;48.228;14.116;2023-01-26T10:25:19;98317.28;;;0.76;100.00
11519;BME280;5816;48.228;14.116;2023-01-26T10:30:21;98312.97;;;1.14;100.00
11519;BME280;5816;48.228;14.116;2023-01-26T10:35:24;98316.53;;;1.13;100.00
11519;BME280;5816;48.228;14.116;2023-01-26T10:40:26;98306.44;;;0.84;100.00
11519;BME280;5816;48.228;14.116;2023-01-26T10:45:30;98312.13;;;0.93;100.00
11519;BME280;5816;48.228;14.116;2023-01-26T10:50:32;98300.50;;;0.78;100.00
11519;BME280;5816;48.228;14.116;2023-01-26T10:55:34;98297.03;;;0.76;100.00
11519;BME280;5816;48.228;14.116;2023-01-26T11:00:37;98292.81;;;0.93;100.00
11519;BME280;5816;48.228;14.116;2023-01-26T11:05:41;98291.06;;;0.73;100.00
11519;BME280;5816;48.228;14.116;2023-01-26T11:10:52;98273.00;;;0.84;100.00
11519;BME280;5816;48.228;14.116;2023-01-26T11:16:04;98281.38;;;0.73;100.00
11519;BME280;5816;48.228;14.116;2023-01-26T11:21:19;98264.25;;;0.63;100.00
11519;BME280;5816;48.228;14.116;2023-01-26T11:36:59;98272.59;;;0.93;100.00
11519;BME280;5816;48.228;14.116;2023-01-26T11:42:16;98255.44;;;1.22;100.00
11519;BME280;5816;48.228;14.116;2023-01-26T11:47:41;98246.66;;;1.41;100.00
11519;BME280;5816;48.228;14.116;2023-01-26T11:58:47;98235.53;;;1.34;100.00
11519;BME280;5816;48.228;14.116;2023-01-26T12:03:51;98228.75;;;1.28;100.00
11519;BME280;5816;48.228;14.116;2023-01-26T12:09:05;98229.53;;;1.30;100.00
11519;BME280;5816;48.228;14.116;2023-01-26T12:25:02;98217.00;;;0.98;100.00
11519;BME280;5816;48.228;14.116;2023-01-26T12:47:07;98202.88;;;0.99;100.00
11519;BME280;5816;48.228;14.116;2023-01-26T12:57:24;98205.44;;;1.00;100.00
11519;BME280;5816;48.228;14.116;2023-01-26T13:02:34;98197.31;;;0.86;100.00
11519;BME280;5816;48.228;14.116;2023-01-26T13:07:38;98198.16;;;0.87;100.00
11519;BME280;5816;48.228;14.116;2023-01-26T13:12:50;98197.91;;;0.93;100.00
11519;BME280;5816;48.228;14.116;2023-01-26T13:17:57;98200.03;;;1.22;100.00
11519;BME280;5816;48.228;14.116;2023-01-26T13:22:59;98188.97;;;1.14;100.00
11519;BME280;5816;48.228;14.116;2023-01-26T13:28:03;98199.34;;;1.19;100.00
11519;BME280;5816;48.228;14.116;2023-01-26T13:33:22;98217.47;;;1.25;100.00
11519;BME280;5816;48.228;14.116;2023-01-26T13:38:31;98210.16;;;1.13;100.00
11519;BME280;5816;48.228;14.116;2023-01-26T13:43:40;98214.06;;;1.04;100.00
11519;BME280;5816;48.228;14.116;2023-01-26T13:48:49;98209.16;;;1.15;100.00
11519;BME280;5816;48.228;14.116;2023-01-26T13:54:04;98213.44;;;0.99;100.00
11519;BME280;5816;48.228;14.116;2023-01-26T13:59:13;98211.84;;;0.95;100.00
11519;BME280;5816;48.228;14.116;2023-01-26T14:04:18;98210.00;;;0.97;100.00
11519;BME280;5816;48.228;14.116;2023-01-26T14:09:24;98203.22;;;1.10;100.00
11519;BME280;5816;48.228;14.116;2023-01-26T14:14:29;98208.00;;;1.02;100.00
11519;BME280;5816;48.228;14.116;2023-01-26T14:19:38;98208.78;;;1.04;100.00
11519;BME280;5816;48.228;14.116;2023-01-26T14:24:40;98205.00;;;1.09;100.00
11519;BME280;5816;48.228;14.116;2023-01-26T14:29:43;98208.75;;;1.05;100.00
11519;BME280;5816;48.228;14.116;2023-01-26T14:34:57;98213.44;;;0.99;100.00
11519;BME280;5816;48.228;14.116;2023-01-26T14:40:17;98209.22;;;0.95;100.00
11519;BME280;5816;48.228;14.116;2023-01-26T14:45:27;98216.13;;;1.16;100.00
11519;BME280;5816;48.228;14.116;2023-01-26T14:50:31;98214.75;;;0.89;100.00
11519;BME280;5816;48.228;14.116;2023-01-26T14:55:34;98213.69;;;0.74;100.00
11519;BME280;5816;48.228;14.116;2023-01-26T15:00:39;98215.69;;;0.88;100.00
11519;BME280;5816;48.228;14.116;2023-01-26T15:05:42;98218.97;;;0.74;100.00
11519;BME280;5816;48.228;14.116;2023-01-26T15:10:55;98220.09;;;0.68;100.00
11519;BME280;5816;48.228;14.116;2023-01-26T15:16:21;98218.53;;;0.83;100.00
11519;BME280;5816;48.228;14.116;2023-01-26T15:21:37;98220.09;;;0.68;100.00
11519;BME280;5816;48.228;14.116;2023-01-26T15:26:41;98226.13;;;0.91;100.00
11519;BME280;5816;48.228;14.116;2023-01-26T15:31:43;98227.66;;;0.76;100.00
11519;BME280;5816;48.228;14.116;2023-01-26T15:36:47;98213.38;;;0.61;100.00
11519;BME280;5816;48.228;14.116;2023-01-26T15:47:03;98215.69;;;0.88;100.00
11519;BME280;5816;48.228;14.116;2023-01-26T15:52:19;98212.97;;;0.70;100.00
11519;BME280;5816;48.228;14.116;2023-01-26T15:57:22;98226.78;;;0.75;100.00
11519;BME280;5816;48.228;14.116;2023-01-26T16:02:26;98218.75;;;0.78;100.00
11519;BME280;5816;48.228;14.116;2023-01-26T16:07:29;98231.69;;;0.64;100.00
11519;BME280;5816;48.228;14.116;2023-01-26T16:12:31;98236.63;;;0.72;100.00
11519;BME280;5816;48.228;14.116;2023-01-26T16:17:34;98235.78;;;0.71;100.00
11519;BME280;5816;48.228;14.116;2023-01-26T16:22:36;98237.59;;;0.69;100.00
11519;BME280;5816;48.228;14.116;2023-01-26T16:27:38;98236.94;;;0.85;100.00
11519;BME280;5816;48.228;14.116;2023-01-26T16:32:39;98239.34;;;0.70;100.00
11519;BME280;5816;48.228;14.116;2023-01-26T16:37:43;98242.59;;;0.75;100.00
11519;BME280;5816;48.228;14.116;2023-01-26T16:42:48;98215.13;;;0.42;100.00
11519;BME280;5816;48.228;14.116;2023-01-26T16:47:54;98243.28;;;0.60;100.00
11519;BME280;5816;48.228;14.116;2023-01-26T16:52:56;98237.06;;;0.81;100.00
11519;BME280;5816;48.228;14.116;2023-01-26T16:57:58;98240.25;;;0.69;100.00
11519;BME280;5816;48.228;14.116;2023-01-26T17:02:59;98236.16;;;0.62;100.00
11519;BME280;5816;48.228;14.116;2023-01-26T17:08:02;98235.91;;;0.68;100.00
11519;BME280;5816;48.228;14.116;2023-01-26T17:13:04;98234.19;;;0.67;100.00
11519;BME280;5816;48.228;14.116;2023-01-26T17:18:07;98227.75;;;0.54;100.00
11519;BME280;5816;48.228;14.116;2023-01-26T17:23:09;98222.34;;;0.57;100.00
11519;BME280;5816;48.228;14.116;2023-01-26T17:28:11;98219.47;;;0.43;100.00
11519;BME280;5816;48.228;14.116;2023-01-26T17:33:12;98240.91;;;0.54;100.00
11519;BME280;5816;48.228;14.116;2023-01-26T17:38:14;98234.78;;;0.53;100.00
11519;BME280;5816;48.228;14.116;2023-01-26T17:43:16;98243.81;;;0.48;100.00
11519;BME280;5816;48.228;14.116;2023-01-26T17:48:18;98232.94;;;0.55;100.00
11519;BME280;5816;48.228;14.116;2023-01-26T17:53:19;98240.13;;;0.52;100.00
11519;BME280;5816;48.228;14.116;2023-01-26T17:58:21;98238.22;;;0.55;100.00
11519;BME280;5816;48.228;14.116;2023-01-26T18:03:23;98241.59;;;0.59;100.00
11519;BME280;5816;48.228;14.116;2023-01-26T18:08:27;98241.41;;;0.64;100.00
11519;BME280;5816;48.228;14.116;2023-01-26T18:13:30;98248.81;;;0.54;100.00
11519;BME280;5816;48.228;14.116;2023-01-26T18:18:32;98240.47;;;0.65;100.00
11519;BME280;5816;48.228;14.116;2023-01-26T18:23:34;98236.56;;;0.53;100.00
11519;BME280;5816;48.228;14.116;2023-01-26T18:28:38;98234.88;;;0.52;100.00
11519;BME280;5816;48.228;14.116;2023-01-26T18:33:41;98232.44;;;0.47;100.00
11519;BME280;5816;48.228;14.116;2023-01-26T18:38:50;98217.94;;;0.17;100.00
11519;BME280;5816;48.228;14.116;2023-01-26T18:43:54;98229.88;;;0.25;100.00
11519;BME280;5816;48.228;14.116;2023-01-26T18:48:56;98233.94;;;0.33;100.00
11519;BME280;5816;48.228;14.116;2023-01-26T18:54:02;98231.31;;;0.33;100.00
11519;BME280;5816;48.228;14.116;2023-01-26T18:59:04;98220.91;;;0.30;100.00
11519;BME280;5816;48.228;14.116;2023-01-26T19:04:10;98230.28;;;0.37;100.00
11519;BME280;5816;48.228;14.116;2023-01-26T19:09:12;98221.28;;;0.41;100.00
11519;BME280;5816;48.228;14.116;2023-01-26T19:14:14;98233.56;;;0.42;100.00
11519;BME280;5816;48.228;14.116;2023-01-26T19:19:16;98228.00;;;0.48;100.00
11519;BME280;5816;48.228;14.116;2023-01-26T19:24:17;98235.13;;;0.46;100.00
11519;BME280;5816;48.228;14.116;2023-01-26T19:29:19;98229.44;;;0.55;100.00
11519;BME280;5816;48.228;14.116;2023-01-26T19:34:21;98226.88;;;0.53;100.00
11519;BME280;5816;48.228;14.116;2023-01-26T19:39:23;98212.88;;;0.33;100.00
11519;BME280;5816;48.228;14.116;2023-01-26T19:44:25;98213.94;;;0.49;100.00
11519;BME280;5816;48.228;14.116;2023-01-26T19:49:27;98225.59;;;0.43;100.00
11519;BME280;5816;48.228;14.116;2023-01-26T19:54:29;98231.47;;;0.50;100.00
11519;BME280;5816;48.228;14.116;2023-01-26T19:59:30;98225.34;;;0.49;100.00
11519;BME280;5816;48.228;14.116;2023-01-26T20:04:32;98222.47;;;0.54;100.00
11519;BME280;5816;48.228;14.116;2023-01-26T20:09:34;98223.41;;;0.53;100.00
11519;BME280;5816;48.228;14.116;2023-01-26T20:14:36;98229.75;;;0.49;100.00
11519;BME280;5816;48.228;14.116;2023-01-26T20:19:38;98214.19;;;0.43;100.00
11519;BME280;5816;48.228;14.116;2023-01-26T20:24:39;98217.34;;;0.51;100.00
11519;BME280;5816;48.228;14.116;2023-01-26T20:29:41;98222.16;;;0.41;100.00
11519;BME280;5816;48.228;14.116;2023-01-26T20:34:43;98213.00;;;0.50;100.00
11519;BME280;5816;48.228;14.116;2023-01-26T20:39:45;98213.88;;;0.50;100.00
11519;BME280;5816;48.228;14.116;2023-01-26T20:44:47;98210.50;;;0.47;100.00
11519;BME280;5816;48.228;14.116;2023-01-26T20:49:49;98198.66;;;0.37;100.00
11519;BME280;5816;48.228;14.116;2023-01-26T20:54:51;98196.41;;;0.27;100.00
11519;BME280;5816;48.228;14.116;2023-01-26T20:59:54;98202.34;;;0.33;100.00
11519;BME280;5816;48.228;14.116;2023-01-26T21:04:56;98200.03;;;0.25;100.00
11519;BME280;5816;48.228;14.116;2023-01-26T21:09:57;98199.44;;;0.18;100.00
11519;BME280;5816;48.228;14.116;2023-01-26T21:14:59;98201.75;;;0.26;100.00
11519;BME280;5816;48.228;14.116;2023-01-26T21:20:01;98200.88;;;0.25;100.00
11519;BME280;5816;48.228;14.116;2023-01-26T21:25:03;98190.25;;;0.29;100.00
11519;BME280;5816;48.228;14.116;2023-01-26T21:30:05;98198.25;;;0.25;100.00
11519;BME280;5816;48.228;14.116;2023-01-26T21:35:07;98191.13;;;0.27;100.00
